Time;durP1;ratioP1;P1;durP2;ratioP2;P2;SDS_P1;SDS_P2;PMS_P1;PMS_P2;Temp;Humidity;BMP_temperature;BMP_pressure;BME280_temperature;BME280_humidity;BME280_pressure;Samples;Min_cycle;Max_cycle;Signal;HPM_P1;HPM_P2
2021/10/24 00:01:12;;;;;;;6.57;5.97;;;5.70;99.90;;;;;;5026100;28;20162;-82
2021/10/24 00:03:38;;;;;;;16.17;6.73;;;5.50;99.90;;;;;;5028739;28;20170;-81
2021/10/24 00:06:04;;;;;;;16.67;5.80;;;5.50;99.90;;;;;;5025457;28;20406;-82
2021/10/24 00:08:30;;;;;;;8.97;7.10;;;5.60;99.90;;;;;;5023749;28;20412;-82
2021/10/24 00:10:57;;;;;;;7.70;5.97;;;5.90;99.90;;;;;;5036709;28;20197;-83
2021/10/24 00:13:22;;;;;;;10.53;7.87;;;6.10;99.90;;;;;;5037072;28;20396;-81
2021/10/24 00:15:48;;;;;;;8.67;6.93;;;6.10;99.90;;;;;;5024107;28;20900;-81
2021/10/24 00:18:14;;;;;;;14.30;7.07;;;6.00;99.90;;;;;;5023601;28;20169;-83
2021/10/24 00:20:41;;;;;;;11.63;7.73;;;6.10;99.90;;;;;;5024970;28;20408;-83
2021/10/24 00:23:07;;;;;;;8.03;7.30;;;5.90;99.90;;;;;;5032592;28;20866;-82
2021/10/24 00:25:32;;;;;;;8.20;7.33;;;6.10;99.90;;;;;;5035647;28;20446;-81
2021/10/24 00:27:58;;;;;;;13.73;7.80;;;6.00;99.90;;;;;;5037883;28;20398;-79
2021/10/24 00:30:25;;;;;;;10.43;6.83;;;6.10;99.90;;;;;;5038254;28;20221;-83
2021/10/24 00:32:51;;;;;;;8.20;6.03;;;6.10;99.90;;;;;;5038607;28;20460;-81
2021/10/24 00:35:17;;;;;;;10.27;7.17;;;6.20;99.90;;;;;;5037529;28;20400;-79
2021/10/24 00:37:42;;;;;;;8.53;7.33;;;6.20;99.90;;;;;;5037158;28;20217;-81
2021/10/24 00:40:09;;;;;;;11.80;7.00;;;6.10;99.90;;;;;;5036767;28;20157;-79
2021/10/24 00:42:35;;;;;;;10.10;6.37;;;6.00;99.90;;;;;;5035679;28;20179;-78
2021/10/24 00:45:00;;;;;;;7.67;6.87;;;6.00;99.90;;;;;;5026504;28;20436;-82
2021/10/24 00:47:30;;;;;;;9.07;6.90;;;6.00;99.90;;;;;;5022249;28;20229;-82
2021/10/24 00:49:56;;;;;;;11.80;6.77;;;5.90;99.90;;;;;;5021676;28;20182;-81
2021/10/24 00:52:21;;;;;;;11.67;8.80;;;6.10;99.90;;;;;;5022441;28;20405;-82
2021/10/24 00:54:48;;;;;;;11.80;6.37;;;5.90;99.90;;;;;;5021521;28;20162;-82
2021/10/24 00:57:14;;;;;;;11.37;6.40;;;5.90;99.90;;;;;;5022870;28;20393;-82
2021/10/24 00:59:40;;;;;;;5.57;5.07;;;6.00;99.90;;;;;;5022552;28;20892;-83
2021/10/24 01:02:06;;;;;;;15.43;6.83;;;6.10;99.90;;;;;;5005526;28;20165;-82
2021/10/24 01:04:32;;;;;;;8.03;6.30;;;6.10;99.90;;;;;;5020802;28;20405;-82
2021/10/24 01:07:03;;;;;;;12.67;7.33;;;6.00;99.90;;;;;;5023808;28;20408;-82
2021/10/24 01:09:31;;;;;;;13.83;6.80;;;6.00;99.90;;;;;;5023241;28;20157;-82
2021/10/24 01:11:57;;;;;;;9.27;6.70;;;6.00;99.90;;;;;;5006251;28;20455;-83
2021/10/24 01:14:23;;;;;;;7.87;6.03;;;5.90;99.90;;;;;;5023796;28;20392;-82
2021/10/24 01:16:52;;;;;;;9.13;7.10;;;5.90;99.90;;;;;;5023486;28;20491;-82
2021/10/24 01:19:20;;;;;;;17.30;7.27;;;5.60;99.90;;;;;;5023808;28;20592;-82
2021/10/24 01:21:46;;;;;;;11.27;7.37;;;5.60;99.90;;;;;;5024510;28;20843;-82
2021/10/24 01:24:12;;;;;;;7.97;6.40;;;5.20;99.90;;;;;;5028222;28;20389;-80
2021/10/24 01:26:43;;;;;;;8.03;5.80;;;4.90;99.90;;;;;;5036115;28;20388;-79
2021/10/24 01:29:11;;;;;;;22.53;6.83;;;4.90;99.90;;;;;;5034890;28;20188;-79
2021/10/24 01:31:37;;;;;;;10.50;7.27;;;4.60;99.90;;;;;;5035806;28;20440;-79
2021/10/24 01:34:05;;;;;;;9.50;7.83;;;4.90;99.90;;;;;;5033105;28;20426;-79
2021/10/24 01:36:32;;;;;;;10.30;7.70;;;5.20;99.90;;;;;;5034234;28;20520;-82
2021/10/24 01:38:58;;;;;;;12.40;6.77;;;5.30;99.90;;;;;;5034225;28;20360;-79
2021/10/24 01:41:27;;;;;;;8.80;7.47;;;4.90;99.90;;;;;;5035332;28;20408;-80
2021/10/24 01:43:53;;;;;;;14.73;8.13;;;5.20;99.90;;;;;;5034397;28;20625;-79
2021/10/24 01:46:20;;;;;;;7.90;6.40;;;5.40;99.90;;;;;;5035510;28;20439;-79
2021/10/24 01:48:46;;;;;;;15.57;6.30;;;5.30;99.90;;;;;;5035924;28;20392;-80
2021/10/24 01:51:12;;;;;;;9.17;6.10;;;5.20;99.90;;;;;;5031764;28;20465;-82
2021/10/24 01:53:41;;;;;;;11.03;5.67;;;5.20;99.90;;;;;;5025597;28;20483;-83
2021/10/24 01:56:08;;;;;;;11.00;6.30;;;5.40;99.90;;;;;;5020652;28;20401;-82
2021/10/24 01:58:35;;;;;;;9.97;7.40;;;5.40;99.90;;;;;;5020264;28;20396;-82
2021/10/24 02:01:02;;;;;;;7.87;6.23;;;5.40;99.90;;;;;;5020773;28;20397;-82
2021/10/24 02:03:28;;;;;;;7.73;6.53;;;5.30;99.90;;;;;;5018985;28;20491;-81
2021/10/24 02:05:54;;;;;;;6.30;5.70;;;5.30;99.90;;;;;;5020722;28;20438;-81
2021/10/24 02:08:20;;;;;;;21.43;6.07;;;5.20;99.90;;;;;;5019671;28;20180;-81
2021/10/24 02:10:46;;;;;;;18.53;6.20;;;5.20;99.90;;;;;;5002198;28;20200;-82
2021/10/24 02:13:12;;;;;;;5.30;4.90;;;4.60;99.90;;;;;;5018452;28;20431;-82
2021/10/24 02:15:38;;;;;;;9.03;6.13;;;4.70;99.90;;;;;;5017906;28;20420;-82
2021/10/24 02:18:06;;;;;;;7.73;6.77;;;4.80;99.90;;;;;;5019795;28;20400;-82
2021/10/24 02:20:34;;;;;;;6.30;5.37;;;5.00;99.90;;;;;;5019505;28;20396;-82
2021/10/24 02:23:01;;;;;;;6.47;5.87;;;5.00;99.90;;;;;;5020237;28;20455;-82
2021/10/24 02:25:28;;;;;;;10.53;6.20;;;5.00;99.90;;;;;;5019757;28;20389;-82
2021/10/24 02:27:53;;;;;;;16.93;5.40;;;5.00;99.90;;;;;;5018832;28;20931;-82
2021/10/24 02:30:21;;;;;;;14.43;7.00;;;5.00;99.90;;;;;;5019757;28;20448;-81
2021/10/24 02:32:47;;;;;;;22.07;5.30;;;5.10;99.90;;;;;;5019597;28;20162;-82
2021/10/24 02:35:13;;;;;;;5.50;5.00;;;5.20;99.90;;;;;;5023799;28;20440;-82
2021/10/24 02:37:40;;;;;;;7.90;5.40;;;5.30;99.90;;;;;;5022261;28;20839;-81
2021/10/24 02:40:09;;;;;;;13.47;6.13;;;5.00;99.90;;;;;;5002350;28;20464;-82
2021/10/24 02:42:36;;;;;;;27.47;6.27;;;4.90;99.90;;;;;;5019778;28;20409;-82
2021/10/24 02:45:02;;;;;;;5.53;5.03;;;4.50;99.90;;;;;;5019528;28;20385;-82
2021/10/24 02:47:28;;;;;;;7.20;5.70;;;4.60;99.90;;;;;;5019835;28;20867;-81
2021/10/24 02:49:54;;;;;;;6.47;5.10;;;4.70;99.90;;;;;;5019456;28;20404;-80
2021/10/24 02:52:20;;;;;;;11.03;5.60;;;4.90;99.90;;;;;;5001801;28;20162;-82
2021/10/24 02:54:45;;;;;;;9.00;5.70;;;4.80;99.90;;;;;;5019447;28;20164;-82
2021/10/24 02:57:11;;;;;;;25.83;6.60;;;5.00;99.90;;;;;;5019729;28;20157;-82
2021/10/24 02:59:37;;;;;;;15.10;6.80;;;4.90;99.90;;;;;;5018120;28;20502;-82
2021/10/24 03:02:04;;;;;;;8.37;5.67;;;4.80;99.90;;;;;;5001778;28;20185;-82
2021/10/24 03:04:30;;;;;;;26.17;7.47;;;4.90;99.90;;;;;;5020348;28;20169;-81
2021/10/24 03:06:56;;;;;;;14.93;6.70;;;4.60;99.90;;;;;;5020035;28;20432;-81
2021/10/24 03:09:22;;;;;;;5.47;4.97;;;4.60;99.90;;;;;;5019615;28;20176;-82
2021/10/24 03:11:48;;;;;;;8.93;5.07;;;4.60;99.90;;;;;;5018757;28;20459;-82
2021/10/24 03:14:15;;;;;;;18.40;5.80;;;4.80;99.90;;;;;;5019402;28;20173;-81
2021/10/24 03:16:44;;;;;;;11.37;5.70;;;4.90;99.90;;;;;;5019458;28;20869;-82
2021/10/24 03:19:11;;;;;;;9.30;4.87;;;5.00;99.90;;;;;;5019627;28;20879;-82
2021/10/24 03:21:37;;;;;;;10.80;5.23;;;5.00;99.90;;;;;;5002278;28;20430;-82
2021/10/24 03:24:05;;;;;;;9.37;4.67;;;5.20;99.90;;;;;;5020190;28;20954;-82
2021/10/24 03:26:32;;;;;;;8.87;4.67;;;5.10;99.90;;;;;;5020729;28;20392;-82
2021/10/24 03:28:58;;;;;;;10.13;4.93;;;5.00;99.90;;;;;;5010890;28;20420;-82
2021/10/24 03:31:27;;;;;;;15.30;6.43;;;5.00;99.90;;;;;;5028663;28;20527;-83
2021/10/24 03:33:53;;;;;;;7.47;5.37;;;4.90;99.90;;;;;;5027044;28;20397;-83
2021/10/24 03:36:20;;;;;;;10.90;5.13;;;4.80;99.90;;;;;;5024986;28;20780;-82
2021/10/24 03:38:48;;;;;;;7.30;4.97;;;4.80;99.90;;;;;;5010488;28;20207;-81
2021/10/24 03:41:15;;;;;;;10.17;4.30;;;4.70;99.90;;;;;;5022520;28;20396;-81
2021/10/24 03:43:40;;;;;;;6.30;4.60;;;4.20;99.90;;;;;;5025989;28;20165;-82
2021/10/24 03:46:06;;;;;;;19.40;5.37;;;4.40;99.90;;;;;;5019743;28;20447;-81
2021/10/24 03:48:33;;;;;;;7.33;5.20;;;4.40;99.90;;;;;;5022415;28;20264;-82
2021/10/24 03:50:59;;;;;;;4.60;4.07;;;4.70;99.90;;;;;;5022126;28;20452;-82
2021/10/24 03:53:25;;;;;;;6.53;5.93;;;4.80;99.90;;;;;;5023011;28;20414;-83
2021/10/24 03:55:51;;;;;;;8.30;5.07;;;4.90;99.90;;;;;;5021977;28;20165;-81
2021/10/24 03:58:16;;;;;;;4.93;4.53;;;4.80;99.90;;;;;;5022956;28;20595;-81
2021/10/24 04:00:43;;;;;;;15.93;5.87;;;4.40;99.90;;;;;;5004614;28;20216;-81
2021/10/24 04:03:10;;;;;;;8.03;5.00;;;4.30;99.90;;;;;;5022282;28;20306;-82
2021/10/24 04:05:36;;;;;;;6.43;5.10;;;4.60;99.90;;;;;;5022744;28;20444;-82
2021/10/24 04:08:03;;;;;;;6.77;4.63;;;4.70;99.90;;;;;;5023039;28;20415;-81
2021/10/24 04:10:29;;;;;;;7.27;5.40;;;4.90;99.90;;;;;;5022540;28;20514;-81
2021/10/24 04:12:56;;;;;;;17.30;4.83;;;4.80;99.90;;;;;;5022324;28;20404;-81
2021/10/24 04:15:23;;;;;;;5.17;4.70;;;4.60;99.90;;;;;;5022174;28;20397;-82
2021/10/24 04:17:49;;;;;;;7.53;4.37;;;4.70;99.90;;;;;;5022546;28;20371;-82
2021/10/24 04:20:19;;;;;;;4.63;4.13;;;4.70;99.90;;;;;;5021711;28;20382;-81
2021/10/24 04:22:46;;;;;;;15.50;5.53;;;4.80;99.90;;;;;;5021086;28;20456;-83
2021/10/24 04:25:13;;;;;;;6.50;5.10;;;4.60;99.90;;;;;;5021356;28;20375;-82
2021/10/24 04:27:39;;;;;;;6.77;4.87;;;4.70;99.90;;;;;;5021630;28;20723;-81
2021/10/24 04:30:08;;;;;;;8.20;5.27;;;4.60;99.90;;;;;;5023895;28;20395;-82
2021/10/24 04:32:35;;;;;;;5.23;4.73;;;4.70;99.90;;;;;;5022549;28;20538;-80
2021/10/24 04:35:01;;;;;;;8.90;5.30;;;4.60;99.90;;;;;;5020607;28;20760;-81
2021/10/24 04:37:27;;;;;;;5.77;4.60;;;4.60;99.90;;;;;;5019591;28;20464;-80
2021/10/24 04:39:53;;;;;;;12.23;5.57;;;4.70;99.90;;;;;;5021924;28;20161;-81
2021/10/24 04:42:20;;;;;;;9.23;4.97;;;4.70;99.90;;;;;;5037251;28;20519;-82
2021/10/24 04:44:45;;;;;;;8.03;5.37;;;4.80;99.90;;;;;;5020234;28;20514;-82
2021/10/24 04:47:13;;;;;;;6.40;5.73;;;4.90;99.90;;;;;;5022067;28;20409;-82
2021/10/24 04:49:39;;;;;;;6.70;4.73;;;4.80;99.90;;;;;;5019805;28;20185;-81
2021/10/24 04:52:05;;;;;;;7.93;5.07;;;4.80;99.90;;;;;;5019125;28;20563;-81
2021/10/24 04:54:31;;;;;;;10.80;4.67;;;4.80;99.90;;;;;;5019384;28;20248;-81
2021/10/24 04:56:57;;;;;;;9.20;5.10;;;4.90;99.90;;;;;;5018708;28;20471;-81
2021/10/24 04:59:23;;;;;;;5.87;4.17;;;4.80;99.90;;;;;;5025418;28;20192;-83
2021/10/24 05:01:51;;;;;;;5.60;5.10;;;4.80;99.90;;;;;;5033316;28;20166;-82
2021/10/24 05:04:18;;;;;;;4.83;4.27;;;4.80;99.90;;;;;;5019398;28;20520;-82
2021/10/24 05:06:44;;;;;;;5.20;4.50;;;4.80;99.90;;;;;;5018631;28;20458;-81
2021/10/24 05:09:10;;;;;;;6.67;4.80;;;4.80;99.90;;;;;;5018153;28;20511;-79
2021/10/24 05:11:36;;;;;;;5.23;4.23;;;4.70;99.90;;;;;;5018543;28;20204;-82
2021/10/24 05:14:04;;;;;;;6.43;4.77;;;4.60;99.90;;;;;;5017491;28;20158;-81
2021/10/24 05:16:30;;;;;;;12.43;5.00;;;4.60;99.90;;;;;;5018077;28;20598;-82
2021/10/24 05:18:56;;;;;;;6.83;4.33;;;4.70;99.90;;;;;;5018315;28;20397;-82
2021/10/24 05:21:22;;;;;;;5.10;4.60;;;4.70;99.90;;;;;;5020276;28;20431;-81
2021/10/24 05:23:48;;;;;;;8.30;5.97;;;4.60;99.90;;;;;;5020750;28;20442;-80
2021/10/24 05:26:14;;;;;;;5.43;4.27;;;4.60;99.90;;;;;;5019399;28;20161;-81
2021/10/24 05:28:40;;;;;;;9.07;6.40;;;4.70;99.90;;;;;;5020186;28;20215;-82
2021/10/24 05:31:06;;;;;;;6.83;5.10;;;4.60;99.90;;;;;;5019077;28;20515;-82
2021/10/24 05:33:31;;;;;;;4.20;3.70;;;4.70;99.90;;;;;;5020421;28;20389;-82
2021/10/24 05:35:57;;;;;;;4.87;4.00;;;4.60;99.90;;;;;;5021099;28;20276;-82
2021/10/24 05:38:24;;;;;;;4.50;4.10;;;4.60;99.90;;;;;;5021007;28;20212;-81
2021/10/24 05:40:51;;;;;;;11.73;4.60;;;4.60;99.90;;;;;;5024504;28;20435;-81
2021/10/24 05:43:17;;;;;;;6.30;5.30;;;4.60;99.90;;;;;;5023614;28;20495;-83
2021/10/24 05:45:44;;;;;;;6.17;4.60;;;4.60;99.90;;;;;;5019626;28;20404;-82
2021/10/24 05:48:12;;;;;;;12.67;7.80;;;4.60;99.90;;;;;;5018742;28;20396;-81
2021/10/24 05:50:38;;;;;;;8.37;4.50;;;4.40;99.90;;;;;;5018225;28;20448;-81
2021/10/24 05:53:05;;;;;;;7.30;4.70;;;4.40;99.90;;;;;;5021078;28;20416;-82
2021/10/24 05:55:31;;;;;;;7.97;5.50;;;4.50;99.90;;;;;;5020623;28;20392;-82
2021/10/24 05:57:57;;;;;;;10.27;4.93;;;4.60;99.90;;;;;;5020635;28;20484;-80
2021/10/24 06:00:23;;;;;;;6.13;4.50;;;4.60;99.90;;;;;;5020427;28;20884;-82
2021/10/24 06:02:50;;;;;;;4.67;4.27;;;4.60;99.90;;;;;;5019390;28;20200;-82
2021/10/24 06:05:16;;;;;;;5.73;5.13;;;4.70;99.90;;;;;;5034303;28;20397;-82
2021/10/24 06:07:45;;;;;;;5.53;5.03;;;4.70;99.90;;;;;;5019195;28;20409;-82
2021/10/24 06:10:13;;;;;;;7.17;4.70;;;4.60;99.90;;;;;;5019053;28;20416;-80
2021/10/24 06:12:43;;;;;;;6.30;4.17;;;4.60;99.90;;;;;;5019195;28;20400;-81
2021/10/24 06:15:11;;;;;;;9.33;6.00;;;4.60;99.90;;;;;;5019308;28;20429;-82
2021/10/24 06:17:38;;;;;;;5.13;4.47;;;4.60;99.90;;;;;;5017593;28;20441;-81
2021/10/24 06:20:06;;;;;;;6.10;4.53;;;4.70;99.90;;;;;;5018724;28;20408;-81
2021/10/24 06:22:32;;;;;;;6.73;4.60;;;4.70;99.90;;;;;;5023025;28;20461;-82
2021/10/24 06:24:58;;;;;;;9.03;4.23;;;4.70;99.90;;;;;;5038742;28;20462;-80
2021/10/24 06:27:23;;;;;;;4.83;3.93;;;4.70;99.90;;;;;;5020780;28;20165;-82
2021/10/24 06:29:49;;;;;;;8.20;3.97;;;4.60;99.90;;;;;;5021094;28;20177;-82
2021/10/24 06:32:17;;;;;;;5.80;5.20;;;4.60;99.90;;;;;;5019929;28;20273;-82
2021/10/24 06:34:43;;;;;;;4.10;3.70;;;4.70;99.90;;;;;;5019257;28;20165;-82
2021/10/24 06:37:08;;;;;;;5.47;3.77;;;4.70;99.90;;;;;;5017582;28;20459;-82
2021/10/24 06:39:34;;;;;;;8.57;5.33;;;4.70;99.90;;;;;;5019005;28;20158;-81
2021/10/24 06:42:00;;;;;;;6.10;4.80;;;4.70;99.90;;;;;;5018125;28;20215;-82
2021/10/24 06:44:26;;;;;;;4.73;4.10;;;4.70;99.90;;;;;;5019624;28;20246;-82
2021/10/24 06:46:52;;;;;;;5.00;4.20;;;4.70;99.90;;;;;;5018920;28;20180;-82
2021/10/24 06:49:17;;;;;;;6.00;4.70;;;4.70;99.90;;;;;;5019023;28;20166;-81
2021/10/24 06:51:43;;;;;;;14.80;7.87;;;4.60;99.90;;;;;;5019854;28;20582;-82
2021/10/24 06:54:09;;;;;;;5.73;3.73;;;4.70;99.90;;;;;;5019172;28;20197;-80
2021/10/24 06:56:35;;;;;;;8.37;4.60;;;4.70;99.90;;;;;;5020308;28;20173;-82
2021/10/24 06:59:01;;;;;;;10.23;5.93;;;4.80;99.90;;;;;;5019741;28;20721;-82
2021/10/24 07:01:26;;;;;;;5.17;3.53;;;4.80;99.90;;;;;;5018484;28;20166;-82
2021/10/24 07:03:52;;;;;;;7.00;4.63;;;4.80;99.90;;;;;;5018263;28;20173;-82
2021/10/24 07:06:18;;;;;;;5.63;4.30;;;4.90;99.90;;;;;;5017964;28;20180;-78
2021/10/24 07:08:44;;;;;;;5.43;4.70;;;4.80;99.90;;;;;;5016887;28;20169;-82
2021/10/24 07:11:10;;;;;;;7.67;6.10;;;4.90;99.90;;;;;;5018096;28;20447;-82
2021/10/24 07:13:36;;;;;;;5.33;4.83;;;4.80;99.90;;;;;;5018433;28;20172;-82
2021/10/24 07:16:01;;;;;;;5.40;4.53;;;4.90;99.90;;;;;;5019111;28;20396;-82
2021/10/24 07:18:28;;;;;;;3.90;3.47;;;5.00;99.90;;;;;;5018301;28;20162;-82
2021/10/24 07:20:53;;;;;;;10.30;4.27;;;5.10;99.90;;;;;;5018324;28;20201;-82
2021/10/24 07:23:19;;;;;;;5.03;4.53;;;5.20;99.90;;;;;;5019796;28;20528;-82
2021/10/24 07:25:45;;;;;;;6.00;4.43;;;5.20;99.90;;;;;;5018219;28;20166;-82
2021/10/24 07:28:11;;;;;;;6.33;4.50;;;5.20;99.90;;;;;;5016940;28;20161;-82
2021/10/24 07:30:37;;;;;;;6.30;4.90;;;5.30;99.90;;;;;;5017033;28;20192;-83
2021/10/24 07:33:03;;;;;;;6.80;5.07;;;5.30;99.90;;;;;;5018876;28;20412;-81
2021/10/24 07:35:29;;;;;;;12.67;4.80;;;5.20;99.90;;;;;;5017800;28;20795;-81
2021/10/24 07:37:56;;;;;;;9.00;5.27;;;5.40;99.90;;;;;;5017713;28;20161;-82
2021/10/24 07:40:23;;;;;;;6.30;4.73;;;5.40;99.90;;;;;;5019669;28;20404;-82
2021/10/24 07:42:49;;;;;;;9.97;5.40;;;5.60;99.90;;;;;;5018605;28;20404;-81
2021/10/24 07:45:16;;;;;;;6.60;4.87;;;5.70;99.90;;;;;;5019393;28;20462;-83
2021/10/24 07:47:42;;;;;;;7.63;5.47;;;5.90;99.90;;;;;;5020234;28;20162;-82
2021/10/24 07:50:10;;;;;;;5.83;5.33;;;6.00;99.90;;;;;;5002355;28;20400;-82
2021/10/24 07:52:37;;;;;;;8.03;5.70;;;6.20;99.90;;;;;;5020195;28;20393;-82
2021/10/24 07:55:04;;;;;;;9.17;5.40;;;6.20;99.90;;;;;;5019799;28;20397;-81
2021/10/24 07:57:29;;;;;;;13.67;7.40;;;6.50;99.90;;;;;;5020330;28;20391;-81
2021/10/24 07:59:55;;;;;;;11.93;8.17;;;6.80;99.90;;;;;;5019535;28;20400;-83
2021/10/24 08:02:21;;;;;;;7.20;4.30;;;7.10;99.90;;;;;;5003093;28;20162;-82
2021/10/24 08:04:48;;;;;;;9.30;7.50;;;7.30;99.90;;;;;;5022841;28;20400;-82
2021/10/24 08:07:15;;;;;;;6.30;4.97;;;7.70;99.90;;;;;;5018615;28;20255;-83
2021/10/24 08:09:43;;;;;;;7.70;6.27;;;7.30;99.90;;;;;;5021276;28;20396;-82
2021/10/24 08:12:09;;;;;;;8.27;6.10;;;7.50;99.90;;;;;;5010668;28;20490;-81
2021/10/24 08:14:35;;;;;;;6.60;5.67;;;7.60;99.90;;;;;;5022681;28;20546;-81
2021/10/24 08:17:04;;;;;;;10.33;6.40;;;8.30;99.90;;;;;;5022857;28;20435;-82
2021/10/24 08:19:30;;;;;;;7.40;5.80;;;8.70;99.90;;;;;;5022048;28;20367;-80
2021/10/24 08:21:57;;;;;;;5.70;5.27;;;9.50;99.90;;;;;;5026510;28;20420;-81
2021/10/24 08:24:24;;;;;;;5.47;5.03;;;9.70;99.90;;;;;;5031866;28;20400;-82
2021/10/24 08:26:51;;;;;;;7.60;5.30;;;10.00;99.90;;;;;;5032096;28;20411;-82
2021/10/24 08:29:17;;;;;;;5.60;5.10;;;10.30;99.90;;;;;;5012248;28;20403;-81
2021/10/24 08:31:49;;;;;;;7.23;5.60;;;10.50;99.90;;;;;;5021751;28;20567;-83
2021/10/24 08:34:16;;;;;;;13.00;5.03;;;11.40;99.90;;;;;;5022960;28;20484;-83
2021/10/24 08:36:43;;;;;;;9.13;5.00;;;11.60;99.90;;;;;;5038663;28;20452;-83
2021/10/24 08:39:09;;;;;;;6.87;6.20;;;12.10;99.90;;;;;;5022971;28;20874;-83
2021/10/24 08:41:38;;;;;;;5.70;5.20;;;12.90;99.90;;;;;;5025335;28;20403;-82
2021/10/24 08:44:04;;;;;;;5.90;5.30;;;13.20;99.90;;;;;;5025131;28;20412;-83
2021/10/24 08:46:31;;;;;;;8.83;4.93;;;13.50;99.90;;;;;;5027359;28;20447;-82
2021/10/24 08:48:57;;;;;;;6.43;5.80;;;13.80;99.90;;;;;;5027838;28;20411;-83
2021/10/24 08:51:28;;;;;;;10.80;6.13;;;13.90;99.90;;;;;;5022879;28;20459;-81
2021/10/24 08:53:54;;;;;;;8.03;5.30;;;14.10;99.90;;;;;;5026850;28;20392;-81
2021/10/24 08:56:22;;;;;;;9.53;5.53;;;14.30;99.90;;;;;;5034020;28;20393;-82
2021/10/24 08:58:50;;;;;;;7.00;6.03;;;14.70;99.90;;;;;;5032289;28;20397;-80
2021/10/24 09:01:20;;;;;;;7.83;5.47;;;14.90;99.90;;;;;;5028245;28;20440;-82
2021/10/24 09:04:06;;;;;;;16.30;11.30;;;15.00;99.90;;;;;;5025296;28;20408;-82
2021/10/24 09:06:56;;;;;;;4.37;3.50;;;14.40;99.90;;;;;;5024535;28;20393;-83
2021/10/24 09:09:30;;;;;;;4.90;4.40;;;14.10;99.90;;;;;;5024157;28;20397;-81
2021/10/24 09:12:01;;;;;;;8.23;5.10;;;13.60;99.90;;;;;;5026236;28;20444;-82
2021/10/24 09:14:47;;;;;;;6.60;4.23;;;13.30;99.90;;;;;;5024161;28;20450;-82
2021/10/24 09:17:31;;;;;;;4.87;4.47;;;12.80;99.90;;;;;;5026557;28;20392;-82
2021/10/24 09:20:00;;;;;;;5.90;3.53;;;12.90;99.90;;;;;;5014942;28;20488;-80
2021/10/24 09:22:28;;;;;;;5.63;2.43;;;13.00;99.90;;;;;;5028827;28;20448;-80
2021/10/24 09:25:12;;;;;;;4.13;2.70;;;13.30;99.90;;;;;;5030044;28;20423;-80
2021/10/24 09:27:51;;;;;;;4.63;2.27;;;14.80;99.90;;;;;;5029845;28;20399;-81
2021/10/24 09:30:25;;;;;;;6.70;2.90;;;13.50;99.90;;;;;;5044953;28;20776;-81
2021/10/24 09:33:03;;;;;;;4.00;2.97;;;12.90;99.90;;;;;;5029044;28;20418;-82
2021/10/24 09:35:33;;;;;;;4.97;3.40;;;14.60;99.90;;;;;;5017474;28;20435;-82
2021/10/24 09:38:01;;;;;;;7.60;2.77;;;14.50;99.90;;;;;;5019526;28;20403;-82
2021/10/24 09:40:30;;;;;;;5.23;3.67;;;14.50;99.90;;;;;;5002336;28;20397;-81
2021/10/24 09:43:14;;;;;;;3.10;2.80;;;14.80;99.90;;;;;;5021235;28;20791;-82
2021/10/24 09:45:41;;;;;;;6.33;2.87;;;15.10;99.90;;;;;;5019387;28;20507;-81
2021/10/24 09:48:11;;;;;;;2.83;2.60;;;14.60;99.90;;;;;;5014359;28;20761;-81
2021/10/24 09:51:03;;;;;;;4.67;3.97;;;15.40;99.90;;;;;;5001550;28;20499;-80
2021/10/24 09:53:32;;;;;;;3.43;2.80;;;16.20;99.90;;;;;;5007527;28;20499;-78
2021/10/24 09:56:13;;;;;;;2.30;2.10;;;16.40;99.90;;;;;;5022381;28;20415;-84
2021/10/24 09:58:42;;;;;;;4.90;2.53;;;15.80;99.90;;;;;;5003944;28;20527;-83
2021/10/24 10:01:13;;;;;;;4.57;1.80;;;17.50;99.90;;;;;;5018739;28;20434;-84
2021/10/24 10:03:41;;;;;;;3.47;2.33;;;17.80;97.10;;;;;;5001461;28;20478;-83
2021/10/24 10:06:07;;;;;;;4.40;3.07;;;18.50;96.30;;;;;;5002219;28;20470;-83
2021/10/24 10:08:33;;;;;;;2.70;2.33;;;19.70;94.70;;;;;;5001617;28;20491;-83
2021/10/24 10:11:18;;;;;;;4.80;2.67;;;17.90;96.50;;;;;;5001638;28;20472;-82
2021/10/24 10:13:55;;;;;;;4.70;3.50;;;18.70;96.70;;;;;;5005775;28;20185;-81
2021/10/24 10:17:07;;;;;;;3.80;2.57;;;18.20;96.80;;;;;;4926165;29;20408;-79
2021/10/24 10:19:41;;;;;;;3.43;2.90;;;16.30;94.50;;;;;;4907413;29;20766;-82
2021/10/24 10:22:28;;;;;;;2.57;2.37;;;16.10;95.20;;;;;;4908902;29;20448;-83
2021/10/24 10:24:57;;;;;;;7.60;2.80;;;16.20;99.90;;;;;;4928383;29;20428;-81
2021/10/24 10:27:40;;;;;;;2.63;2.43;;;16.10;97.20;;;;;;4934257;29;20448;-82
2021/10/24 10:30:14;;;;;;;2.67;2.43;;;16.50;96.60;;;;;;4929555;29;20424;-83
2021/10/24 10:32:49;;;;;;;3.50;3.20;;;16.40;97.10;;;;;;4915291;29;20519;-82
2021/10/24 10:35:31;;;;;;;3.23;2.93;;;16.70;97.20;;;;;;4920896;29;20930;-80
2021/10/24 10:38:04;;;;;;;3.63;2.90;;;15.80;97.00;;;;;;4924501;29;20477;-81
2021/10/24 10:40:38;;;;;;;4.20;2.47;;;17.00;96.70;;;;;;4919545;29;20416;-81
2021/10/24 10:43:18;;;;;;;5.23;2.73;;;16.20;95.40;;;;;;4914184;29;20460;-81
2021/10/24 10:45:46;;;;;;;4.23;2.37;;;16.00;95.00;;;;;;4912984;29;20417;-81
2021/10/24 10:48:28;;;;;;;3.20;2.10;;;16.70;95.30;;;;;;4971425;28;20416;-81
2021/10/24 10:50:57;;;;;;;7.70;2.67;;;16.50;94.00;;;;;;5003239;28;20521;-83
2021/10/24 10:54:03;;;;;;;3.30;2.40;;;16.40;93.90;;;;;;4996586;28;20496;-83
2021/10/24 10:56:31;;;;;;;4.33;2.47;;;16.50;93.70;;;;;;4990848;28;20416;-83
2021/10/24 10:58:59;;;;;;;3.77;3.47;;;17.00;93.10;;;;;;5006356;28;20441;-83
2021/10/24 11:01:34;;;;;;;3.57;2.37;;;16.90;92.00;;;;;;5002479;28;20408;-82
2021/10/24 11:04:18;;;;;;;4.67;2.67;;;17.00;92.60;;;;;;4984359;28;20472;-83
2021/10/24 11:07:00;;;;;;;4.27;2.50;;;16.50;91.20;;;;;;4982898;28;20410;-83
2021/10/24 11:09:47;;;;;;;3.23;2.33;;;17.60;92.80;;;;;;4999789;28;20405;-82
2021/10/24 11:12:34;;;;;;;3.87;2.03;;;17.50;91.50;;;;;;4980296;28;21014;-81
2021/10/24 11:15:05;;;;;;;3.60;2.47;;;16.80;91.60;;;;;;4979574;28;20416;-83
2021/10/24 11:17:34;;;;;;;3.83;2.43;;;17.60;90.60;;;;;;4994007;28;20925;-82
2021/10/24 11:20:21;;;;;;;5.77;3.20;;;17.40;87.90;;;;;;4981040;28;20401;-83
2021/10/24 11:22:54;;;;;;;1.90;1.80;;;18.30;90.90;;;;;;4999156;28;20416;-81
2021/10/24 11:25:37;;;;;;;6.03;2.37;;;18.00;87.40;;;;;;5001332;28;20530;-83
2021/10/24 11:28:09;;;;;;;2.80;2.43;;;19.40;86.70;;;;;;5018365;28;20447;-82
2021/10/24 11:30:37;;;;;;;5.13;2.53;;;18.60;82.30;;;;;;5001218;28;20456;-82
2021/10/24 11:33:03;;;;;;;2.50;2.30;;;18.50;83.90;;;;;;5012981;28;20511;-82
2021/10/24 11:35:34;;;;;;;3.33;1.80;;;17.60;84.80;;;;;;5022028;28;20451;-82
2021/10/24 11:38:04;;;;;;;4.03;2.77;;;18.50;84.60;;;;;;5018940;28;20409;-82
2021/10/24 11:40:35;;;;;;;3.80;2.10;;;18.00;84.20;;;;;;5018164;28;20396;-83
2021/10/24 11:43:12;;;;;;;7.00;2.50;;;18.30;86.10;;;;;;5018773;28;20416;-82
2021/10/24 11:45:41;;;;;;;4.37;2.17;;;18.00;83.10;;;;;;5017519;28;20404;-83
2021/10/24 11:48:21;;;;;;;1.93;1.70;;;18.10;84.30;;;;;;5020273;28;20741;-82
2021/10/24 11:51:02;;;;;;;3.70;2.20;;;18.80;82.20;;;;;;5020520;28;20971;-81
2021/10/24 11:53:41;;;;;;;3.40;2.33;;;18.80;80.00;;;;;;5020652;28;20415;-82
2021/10/24 11:56:09;;;;;;;2.03;1.90;;;17.80;84.00;;;;;;5001261;28;20417;-81
2021/10/24 12:01:27;;;;;;;2.30;1.97;;;19.40;79.80;;;;;;5000649;28;20427;-83
2021/10/24 12:04:00;;;;;;;3.70;2.77;;;19.40;77.10;;;;;;5001700;28;20409;-82
2021/10/24 12:07:00;;;;;;;4.20;2.80;;;20.70;75.80;;;;;;4969411;28;20951;-82
2021/10/24 12:09:39;;;;;;;3.57;2.53;;;19.10;75.10;;;;;;4996091;28;21012;-82
2021/10/24 12:12:19;;;;;;;3.47;2.37;;;19.00;78.80;;;;;;5004818;28;20460;-81
2021/10/24 12:15:05;;;;;;;3.67;3.33;;;19.30;75.40;;;;;;4989817;28;20428;-80
2021/10/24 12:17:33;;;;;;;3.93;2.17;;;19.70;77.00;;;;;;4990132;28;20416;-82
2021/10/24 12:20:21;;;;;;;3.40;2.20;;;19.60;75.00;;;;;;4956781;29;20403;-81
2021/10/24 12:23:10;;;;;;;3.33;2.13;;;19.00;76.40;;;;;;4954338;29;20486;-82
2021/10/24 12:25:47;;;;;;;4.13;2.90;;;19.60;74.80;;;;;;4956040;29;20386;-80
2021/10/24 12:28:22;;;;;;;2.50;2.30;;;20.30;71.60;;;;;;4970135;28;20422;-80
2021/10/24 12:30:58;;;;;;;2.87;2.57;;;21.00;70.00;;;;;;4971573;28;20463;-82
2021/10/24 12:33:33;;;;;;;5.37;2.77;;;21.10;71.60;;;;;;4966646;29;20457;-81
2021/10/24 12:36:07;;;;;;;2.70;2.50;;;20.10;70.20;;;;;;4920056;29;20466;-81
2021/10/24 12:38:54;;;;;;;2.37;2.00;;;19.70;73.50;;;;;;4950792;29;20475;-81
2021/10/24 12:41:33;;;;;;;3.60;2.50;;;19.50;73.00;;;;;;4931907;29;20435;-82
2021/10/24 12:43:59;;;;;;;2.67;2.20;;;19.80;74.80;;;;;;4903936;29;20429;-84
2021/10/24 12:46:28;;;;;;;5.07;2.87;;;21.20;70.80;;;;;;4901696;29;20418;-83
2021/10/24 12:48:54;;;;;;;5.30;2.47;;;20.00;67.40;;;;;;4886310;29;20310;-84
2021/10/24 12:51:25;;;;;;;2.23;2.03;;;19.40;67.90;;;;;;4875431;29;20474;-81
2021/10/24 12:53:52;;;;;;;3.73;2.70;;;20.80;69.40;;;;;;4891448;29;20512;-83
2021/10/24 12:56:18;;;;;;;6.33;2.50;;;20.10;68.30;;;;;;4884537;29;20763;-82
2021/10/24 12:58:44;;;;;;;2.53;2.20;;;20.10;69.30;;;;;;4867851;29;20411;-82
2021/10/24 13:01:22;;;;;;;2.90;2.13;;;19.60;69.30;;;;;;4867102;29;20235;-82
2021/10/24 13:03:48;;;;;;;2.57;2.37;;;19.80;68.80;;;;;;4881690;29;20199;-82